Time;durP1;ratioP1;P1;durP2;ratioP2;P2;SDS_P1;SDS_P2;PMS_P1;PMS_P2;Temp;Humidity;BMP_temperature;BMP_pressure;BME280_temperature;BME280_humidity;BME280_pressure;Samples;Min_cycle;Max_cycle;Signal;HPM_P1;HPM_P2
2022/05/10 00:01:07;;;;;;;;;;;12.60;99.90;;;;;;4989227;28;19929;-72
2022/05/10 00:03:38;;;;;;;;;;;12.60;99.90;;;;;;5004825;28;19926;-72
2022/05/10 00:06:05;;;;;;;;;;;12.60;99.90;;;;;;5000248;28;19933;-72
2022/05/10 00:08:38;;;;;;;;;;;12.50;99.90;;;;;;4996908;28;19925;-71
2022/05/10 00:11:10;;;;;;;;;;;12.60;99.90;;;;;;5003730;28;20387;-72
2022/05/10 00:13:41;;;;;;;;;;;12.50;99.90;;;;;;4985636;28;19926;-72
2022/05/10 00:16:14;;;;;;;;;;;12.50;99.90;;;;;;5005008;28;19929;-72
2022/05/10 00:18:46;;;;;;;;;;;12.40;99.90;;;;;;5004148;28;20379;-72
2022/05/10 00:21:22;;;;;;;;;;;12.30;99.90;;;;;;4985422;28;19926;-72
2022/05/10 00:23:54;;;;;;;;;;;12.30;99.90;;;;;;4997335;28;20287;-72
2022/05/10 00:26:25;;;;;;;;;;;12.30;99.90;;;;;;4999930;28;19937;-72
2022/05/10 00:28:57;;;;;;;;;;;12.20;99.90;;;;;;5000676;28;19926;-71
2022/05/10 00:31:29;;;;;;;;;;;12.10;99.90;;;;;;5005153;28;19932;-72
2022/05/10 00:34:01;;;;;;;;;;;12.10;99.90;;;;;;4988130;28;19925;-72
2022/05/10 00:36:33;;;;;;;;;;;12.10;99.90;;;;;;4982434;28;19930;-71
2022/05/10 00:39:05;;;;;;;;;;;12.10;99.90;;;;;;4986229;28;20280;-72
2022/05/10 00:41:48;;;;;;;;;;;12.10;99.90;;;;;;4982489;28;20021;-72
2022/05/10 00:44:22;;;;;;;;;;;12.10;99.90;;;;;;5000303;28;19926;-72
2022/05/10 00:47:00;;;;;;;;;;;12.00;99.90;;;;;;5002745;28;19932;-72
2022/05/10 00:49:38;;;;;;;;;;;11.90;99.90;;;;;;4994964;28;20570;-72
2022/05/10 00:52:23;;;;;;;;;;;11.90;99.90;;;;;;4998836;28;20378;-72
2022/05/10 00:55:02;;;;;;;;;;;11.80;99.90;;;;;;4979041;28;20408;-71
2022/05/10 00:57:34;;;;;;;;;;;11.80;99.90;;;;;;5003887;28;19932;-72
2022/05/10 01:00:11;;;;;;;;;;;11.70;99.90;;;;;;5000322;28;19941;-72
2022/05/10 01:03:01;;;;;;;;;;;11.70;99.90;;;;;;4997415;28;20299;-72
2022/05/10 01:05:34;;;;;;;;;;;11.70;99.90;;;;;;4988331;28;19929;-72
2022/05/10 01:08:24;;;;;;;;;;;11.70;99.90;;;;;;5002307;28;19936;-72
2022/05/10 01:11:15;;;;;;;;;;;11.70;99.90;;;;;;4989401;28;20356;-72
2022/05/10 01:13:47;;;;;;;;;;;11.60;99.90;;;;;;4999472;28;19930;-72
2022/05/10 01:16:20;;;;;;;;;;;11.60;99.90;;;;;;4990247;28;19933;-72
2022/05/10 01:18:52;;;;;;;;;;;11.60;99.90;;;;;;4987821;28;19932;-72
2022/05/10 01:21:44;;;;;;;;;;;11.50;99.90;;;;;;4991422;28;20043;-72
2022/05/10 01:24:21;;;;;;;;;;;11.50;99.90;;;;;;5003050;28;19936;-72
2022/05/10 01:26:56;;;;;;;;;;;11.50;99.90;;;;;;4991320;28;20293;-72
2022/05/10 01:29:31;;;;;;;;;;;11.50;99.90;;;;;;5003156;28;19933;-72
2022/05/10 01:34:56;;;;;;;;;;;11.40;99.90;;;;;;5002846;28;20306;-72
2022/05/10 01:37:29;;;;;;;;;;;11.30;99.90;;;;;;4991933;28;19930;-72
2022/05/10 01:40:04;;;;;;;;;;;11.30;99.90;;;;;;5007704;28;19933;-71
2022/05/10 01:42:48;;;;;;;;;;;11.20;99.90;;;;;;5006090;28;20413;-72
2022/05/10 01:45:35;;;;;;;;;;;11.20;99.90;;;;;;5010998;28;19925;-72
2022/05/10 01:48:08;;;;;;;;;;;11.20;99.90;;;;;;5008458;28;19934;-72
2022/05/10 01:50:46;;;;;;;;;;;11.20;99.90;;;;;;5010128;28;19930;-71
2022/05/10 01:53:18;;;;;;;;;;;11.20;99.90;;;;;;4987843;28;20953;-72
2022/05/10 01:55:54;;;;;;;;;;;11.20;99.90;;;;;;4994498;28;19929;-72
2022/05/10 01:58:27;;;;;;;;;;;11.20;99.90;;;;;;4980969;28;19929;-71
2022/05/10 02:01:03;;;;;;;;;;;11.10;99.90;;;;;;4999662;28;19926;-72
2022/05/10 02:03:42;;;;;;;;;;;11.10;99.90;;;;;;5006454;28;19930;-72
2022/05/10 02:06:23;;;;;;;;;;;11.10;99.90;;;;;;4994923;28;20349;-72
2022/05/10 02:09:00;;;;;;;;;;;11.10;99.90;;;;;;4998144;28;19926;-72
2022/05/10 02:11:34;;;;;;;;;;;11.00;99.90;;;;;;5005301;28;19930;-72
2022/05/10 02:14:08;;;;;;;;;;;10.90;99.90;;;;;;5000311;28;19926;-72
2022/05/10 02:16:40;;;;;;;;;;;10.90;99.90;;;;;;5007727;28;19929;-72
2022/05/10 02:19:18;;;;;;;;;;;10.90;99.90;;;;;;4999689;28;20375;-72
2022/05/10 02:22:03;;;;;;;;;;;10.90;99.90;;;;;;5005759;28;19929;-72
2022/05/10 02:24:35;;;;;;;;;;;10.80;99.90;;;;;;4991386;28;19925;-71
2022/05/10 02:27:10;;;;;;;;;;;10.80;99.90;;;;;;5006351;28;19930;-72
2022/05/10 02:29:45;;;;;;;;;;;10.80;99.90;;;;;;5003866;28;20674;-72
2022/05/10 02:35:10;;;;;;;;;;;10.70;99.90;;;;;;4985943;28;19929;-72
2022/05/10 02:37:36;;;;;;;;;;;10.70;99.90;;;;;;5004015;28;20417;-72
2022/05/10 02:40:08;;;;;;;;;;;10.70;99.90;;;;;;5003392;28;19925;-72
2022/05/10 02:42:41;;;;;;;;;;;10.70;99.90;;;;;;5001260;28;19937;-71
2022/05/10 02:45:12;;;;;;;;;;;10.60;99.90;;;;;;5005269;28;20603;-71
2022/05/10 02:47:45;;;;;;;;;;;10.60;99.90;;;;;;5005086;28;20386;-72
2022/05/10 02:50:28;;;;;;;;;;;10.60;99.90;;;;;;5001801;28;19926;-71
2022/05/10 02:53:00;;;;;;;;;;;10.60;99.90;;;;;;4983294;28;19926;-72
2022/05/10 02:55:40;;;;;;;;;;;10.50;99.90;;;;;;5009755;28;19933;-72
2022/05/10 02:58:16;;;;;;;;;;;10.50;99.90;;;;;;5004793;28;19937;-72
2022/05/10 03:00:48;;;;;;;;;;;10.50;99.90;;;;;;5000540;28;19929;-72
2022/05/10 03:03:21;;;;;;;;;;;10.40;99.90;;;;;;5002921;28;19926;-72
2022/05/10 03:05:47;;;;;;;;;;;10.40;99.90;;;;;;4987622;28;19967;-72
2022/05/10 03:08:20;;;;;;;;;;;10.40;99.90;;;;;;5001544;28;20386;-72
2022/05/10 03:10:51;;;;;;;;;;;10.40;99.90;;;;;;4978368;28;19929;-72
2022/05/10 03:13:23;;;;;;;;;;;10.40;99.90;;;;;;5000026;28;20413;-73
2022/05/10 03:15:54;;;;;;;;;;;10.40;99.90;;;;;;5000414;28;19930;-72
2022/05/10 03:18:26;;;;;;;;;;;10.40;99.90;;;;;;5002210;28;19953;-72
2022/05/10 03:20:58;;;;;;;;;;;10.40;99.90;;;;;;4985176;28;19925;-72
2022/05/10 03:23:24;;;;;;;;;;;10.40;99.90;;;;;;4998249;28;19967;-72
2022/05/10 03:25:56;;;;;;;;;;;10.40;99.90;;;;;;4990677;28;19932;-72
2022/05/10 03:28:34;;;;;;;;;;;10.40;99.90;;;;;;5007951;28;19930;-72
2022/05/10 03:31:07;;;;;;;;;;;10.40;99.90;;;;;;4999539;28;19935;-72
2022/05/10 03:33:39;;;;;;;;;;;10.40;99.90;;;;;;5000716;28;20321;-72
2022/05/10 03:36:10;;;;;;;;;;;10.40;99.90;;;;;;5003882;28;19929;-72
2022/05/10 03:38:37;;;;;;;;;;;10.40;99.90;;;;;;5002065;28;19926;-72
2022/05/10 03:41:09;;;;;;;;;;;10.40;99.90;;;;;;4993842;28;19932;-72
2022/05/10 03:43:40;;;;;;;;;;;10.40;99.90;;;;;;5003566;28;19926;-72
2022/05/10 03:46:12;;;;;;;;;;;10.40;99.90;;;;;;4985896;28;19936;-72
2022/05/10 03:48:44;;;;;;;;;;;10.40;99.90;;;;;;5002520;28;19936;-72
2022/05/10 03:51:11;;;;;;;;;;;10.40;99.90;;;;;;5001805;28;19930;-72
2022/05/10 03:53:42;;;;;;;;;;;10.40;99.90;;;;;;4983512;28;19936;-71
2022/05/10 03:56:14;;;;;;;;;;;10.40;99.90;;;;;;5000034;28;19929;-72
2022/05/10 03:58:46;;;;;;;;;;;10.40;99.90;;;;;;5004638;28;19925;-72
2022/05/10 04:01:12;;;;;;;;;;;10.40;99.90;;;;;;4996771;28;19925;-72
2022/05/10 04:03:39;;;;;;;;;;;10.40;99.90;;;;;;4986184;28;19926;-72
2022/05/10 04:06:11;;;;;;;;;;;10.40;99.90;;;;;;4985364;28;19929;-71
2022/05/10 04:08:42;;;;;;;;;;;10.30;99.90;;;;;;5004515;28;19948;-71
2022/05/10 04:11:10;;;;;;;;;;;10.30;99.90;;;;;;4987180;28;19936;-72
2022/05/10 04:13:42;;;;;;;;;;;10.20;99.90;;;;;;4988708;28;20315;-72
2022/05/10 04:16:14;;;;;;;;;;;10.20;99.90;;;;;;5010803;28;20373;-72
2022/05/10 04:18:48;;;;;;;;;;;10.20;99.90;;;;;;4989111;28;20028;-72
2022/05/10 04:21:20;;;;;;;;;;;10.10;99.90;;;;;;5000620;28;20413;-72
2022/05/10 04:23:46;;;;;;;;;;;10.10;99.90;;;;;;4999678;28;19936;-72
2022/05/10 04:26:19;;;;;;;;;;;10.10;99.90;;;;;;4987191;28;19930;-72
2022/05/10 04:28:46;;;;;;;;;;;10.10;99.90;;;;;;4987807;28;19932;-72
2022/05/10 04:31:19;;;;;;;;;;;10.10;99.90;;;;;;4983046;28;19972;-72
2022/05/10 04:33:45;;;;;;;;;;;10.10;99.90;;;;;;5008548;28;19929;-72
2022/05/10 04:36:12;;;;;;;;;;;10.10;99.90;;;;;;4987255;28;19933;-72
2022/05/10 04:38:46;;;;;;;;;;;10.00;99.90;;;;;;5003651;28;19936;-72
2022/05/10 04:41:26;;;;;;;;;;;10.10;99.90;;;;;;5000583;28;20395;-72
2022/05/10 04:44:03;;;;;;;;;;;10.10;99.90;;;;;;4990415;28;19937;-72
2022/05/10 04:46:35;;;;;;;;;;;10.10;99.90;;;;;;4986872;28;20012;-72
2022/05/10 04:49:09;;;;;;;;;;;10.10;99.90;;;;;;4984724;28;20016;-72
2022/05/10 04:51:41;;;;;;;;;;;10.20;99.90;;;;;;4988571;28;20016;-72
2022/05/10 04:54:12;;;;;;;;;;;10.20;99.90;;;;;;4994869;28;19925;-72
2022/05/10 04:56:44;;;;;;;;;;;10.20;99.90;;;;;;4996062;28;19929;-72
2022/05/10 04:59:15;;;;;;;;;;;10.20;99.90;;;;;;5007888;28;19925;-72
2022/05/10 05:01:48;;;;;;;;;;;10.30;99.90;;;;;;4994123;28;19933;-72
2022/05/10 05:04:19;;;;;;;;;;;10.30;99.90;;;;;;5008829;28;19941;-72
2022/05/10 05:06:52;;;;;;;;;;;10.20;99.90;;;;;;5008822;28;20411;-72
2022/05/10 05:09:24;;;;;;;;;;;10.30;99.90;;;;;;5009861;28;19934;-72
2022/05/10 05:11:56;;;;;;;;;;;10.30;99.90;;;;;;4991078;28;19929;-72
2022/05/10 05:14:31;;;;;;;;;;;10.40;99.90;;;;;;5010951;28;19980;-72
2022/05/10 05:17:03;;;;;;;;;;;10.40;99.90;;;;;;4991969;28;20410;-72
2022/05/10 05:19:35;;;;;;;;;;;10.50;99.90;;;;;;4995103;28;19988;-72
2022/05/10 05:22:06;;;;;;;;;;;10.50;99.90;;;;;;4993332;28;19929;-72
2022/05/10 05:24:33;;;;;;;;;;;10.60;99.90;;;;;;4997659;28;20413;-72
2022/05/10 05:27:05;;;;;;;;;;;10.60;99.90;;;;;;5010188;28;19929;-72
2022/05/10 05:29:31;;;;;;;;;;;10.70;99.90;;;;;;4993317;28;19933;-72
2022/05/10 05:32:05;;;;;;;;;;;10.70;99.90;;;;;;4998311;28;19925;-72
2022/05/10 05:34:32;;;;;;;;;;;10.80;99.90;;;;;;4991149;28;19926;-72
2022/05/10 05:39:49;;;;;;;;;;;10.90;99.90;;;;;;5009670;28;20702;-72
2022/05/10 05:42:21;;;;;;;;;;;10.90;99.90;;;;;;4992702;28;20389;-73
2022/05/10 05:44:52;;;;;;;;;;;11.00;99.90;;;;;;4991772;28;20290;-72
2022/05/10 05:47:25;;;;;;;;;;;11.00;99.90;;;;;;5008154;28;19933;-72
2022/05/10 05:49:57;;;;;;;;;;;11.00;99.90;;;;;;4993243;28;19936;-72
2022/05/10 05:52:28;;;;;;;;;;;11.10;99.90;;;;;;4990106;28;19929;-72
2022/05/10 05:55:00;;;;;;;;;;;11.30;99.90;;;;;;5006660;28;19925;-72
2022/05/10 05:57:32;;;;;;;;;;;11.50;99.90;;;;;;5019230;28;19936;-72
2022/05/10 05:59:58;;;;;;;;;;;11.60;99.90;;;;;;5011760;28;20337;-72
2022/05/10 06:02:37;;;;;;;;;;;11.70;99.90;;;;;;5010851;28;19996;-72
2022/05/10 06:05:05;;;;;;;;;;;11.70;99.90;;;;;;5006753;28;19933;-72
2022/05/10 06:07:37;;;;;;;;;;;11.80;99.90;;;;;;5007484;28;20391;-72
2022/05/10 06:10:09;;;;;;;;;;;11.80;99.90;;;;;;5003549;28;20016;-72
2022/05/10 06:12:41;;;;;;;;;;;11.90;99.90;;;;;;5010342;28;19929;-72
2022/05/10 06:15:14;;;;;;;;;;;12.00;99.90;;;;;;5011942;28;20398;-72
2022/05/10 06:17:49;;;;;;;;;;;12.10;99.90;;;;;;4999837;28;20321;-72
2022/05/10 06:20:24;;;;;;;;;;;12.10;99.90;;;;;;4989443;28;20357;-72
2022/05/10 06:22:56;;;;;;;;;;;12.20;99.90;;;;;;4992153;28;20020;-72
2022/05/10 06:25:23;;;;;;;;;;;12.30;99.90;;;;;;5012308;28;19929;-72
2022/05/10 06:27:55;;;;;;;;;;;12.30;99.90;;;;;;5010589;28;19933;-72
2022/05/10 06:30:27;;;;;;;;;;;12.40;99.90;;;;;;5008758;28;20173;-72
2022/05/10 06:32:57;;;;;;;;;;;12.50;99.90;;;;;;5004263;28;19930;-72
2022/05/10 06:35:29;;;;;;;;;;;12.50;99.90;;;;;;4990892;28;20282;-72
2022/05/10 06:38:16;;;;;;;;;;;12.60;99.90;;;;;;5010075;28;19965;-72
2022/05/10 06:40:45;;;;;;;;;;;12.60;99.90;;;;;;4995854;28;20382;-72
2022/05/10 06:43:17;;;;;;;;;;;12.70;99.90;;;;;;4989640;28;19929;-72
2022/05/10 06:45:50;;;;;;;;;;;12.80;99.90;;;;;;5009253;28;19935;-72
2022/05/10 06:48:22;;;;;;;;;;;12.80;99.90;;;;;;4994486;28;19925;-72
2022/05/10 06:50:53;;;;;;;;;;;12.90;99.90;;;;;;5006362;28;20417;-72
2022/05/10 06:53:20;;;;;;;;;;;13.00;99.90;;;;;;4992200;28;20291;-72
2022/05/10 06:55:52;;;;;;;;;;;13.10;99.90;;;;;;5005427;28;19926;-73
2022/05/10 06:58:23;;;;;;;;;;;13.20;99.90;;;;;;4994681;28;19933;-73
2022/05/10 07:00:55;;;;;;;;;;;13.30;99.90;;;;;;5000390;28;19929;-72
2022/05/10 07:03:34;;;;;;;;;;;13.40;99.90;;;;;;4991554;28;19930;-72
2022/05/10 07:06:07;;;;;;;;;;;13.50;99.90;;;;;;4992818;28;19929;-73
2022/05/10 07:08:40;;;;;;;;;;;13.60;99.90;;;;;;5006259;28;19925;-72
2022/05/10 07:11:12;;;;;;;;;;;13.80;99.90;;;;;;4992535;28;20362;-72
2022/05/10 07:13:44;;;;;;;;;;;13.90;99.90;;;;;;5003282;28;19944;-72
2022/05/10 07:16:15;;;;;;;;;;;14.00;99.90;;;;;;5004113;28;19925;-72
2022/05/10 07:18:47;;;;;;;;;;;14.10;99.90;;;;;;5020665;28;19932;-72
2022/05/10 07:21:13;;;;;;;;;;;14.30;99.90;;;;;;5008524;28;20047;-72
2022/05/10 07:23:40;;;;;;;;;;;14.40;99.90;;;;;;5003528;28;20012;-72
2022/05/10 07:26:12;;;;;;;;;;;14.50;99.90;;;;;;5005412;28;19943;-72
2022/05/10 07:28:41;;;;;;;;;;;14.60;99.90;;;;;;5002901;28;19947;-72
2022/05/10 07:31:13;;;;;;;;;;;14.80;99.90;;;;;;5007779;28;19929;-72
2022/05/10 07:33:44;;;;;;;;;;;15.00;99.90;;;;;;5001138;28;19932;-72
2022/05/10 07:36:25;;;;;;;;;;;15.10;99.90;;;;;;4984279;28;19929;-72
2022/05/10 07:38:52;;;;;;;;;;;15.30;99.90;;;;;;4990503;28;19930;-72
2022/05/10 07:41:24;;;;;;;;;;;15.40;99.90;;;;;;5002570;28;19952;-72
2022/05/10 07:43:56;;;;;;;;;;;15.40;99.90;;;;;;5006571;28;19930;-72
2022/05/10 07:46:28;;;;;;;;;;;15.50;99.90;;;;;;4990780;28;20584;-72
2022/05/10 07:48:59;;;;;;;;;;;15.60;99.90;;;;;;5001711;28;19929;-72
2022/05/10 07:51:26;;;;;;;;;;;15.70;99.90;;;;;;5001897;28;19926;-72
2022/05/10 07:53:58;;;;;;;;;;;15.90;99.90;;;;;;5006476;28;19930;-73
2022/05/10 07:56:29;;;;;;;;;;;16.00;99.90;;;;;;5004135;28;19926;-72
2022/05/10 07:59:01;;;;;;;;;;;16.10;99.90;;;;;;5008180;28;19933;-73
2022/05/10 08:01:33;;;;;;;;;;;16.10;99.90;;;;;;5020252;28;19936;-73
2022/05/10 08:04:04;;;;;;;;;;;16.20;99.90;;;;;;5002274;28;19929;-72
2022/05/10 08:06:36;;;;;;;;;;;16.30;99.90;;;;;;5005032;28;19938;-72
2022/05/10 08:09:08;;;;;;;;;;;16.40;99.90;;;;;;5009267;28;19929;-72
2022/05/10 08:11:34;;;;;;;;;;;16.50;99.90;;;;;;5005462;28;19977;-72
2022/05/10 08:14:06;;;;;;;;;;;16.60;99.90;;;;;;5002833;28;19948;-73
2022/05/10 08:16:38;;;;;;;;;;;16.70;99.90;;;;;;5000738;28;20032;-73
2022/05/10 08:19:09;;;;;;;;;;;16.90;99.90;;;;;;5002953;28;19940;-73
2022/05/10 08:21:41;;;;;;;;;;;17.00;99.90;;;;;;5002370;28;20035;-72
2022/05/10 08:24:13;;;;;;;;;;;17.10;99.90;;;;;;5004237;28;19925;-73
2022/05/10 08:26:44;;;;;;;;;;;17.20;99.90;;;;;;5007051;28;20412;-73
2022/05/10 08:29:16;;;;;;;;;;;17.30;99.90;;;;;;5000690;28;19945;-73
2022/05/10 08:31:42;;;;;;;;;;;17.50;99.90;;;;;;5000287;28;19932;-73
2022/05/10 08:34:09;;;;;;;;;;;17.50;99.90;;;;;;5006256;28;19956;-72
2022/05/10 08:36:41;;;;;;;;;;;17.60;99.90;;;;;;5000810;28;19936;-72
2022/05/10 08:39:13;;;;;;;;;;;17.70;99.90;;;;;;4997955;28;19929;-73
2022/05/10 08:41:46;;;;;;;;;;;17.90;99.90;;;;;;5006204;28;20418;-72
2022/05/10 08:44:15;;;;;;;;;;;17.90;99.90;;;;;;4999194;28;19952;-72
2022/05/10 08:46:45;;;;;;;;;;;18.00;99.90;;;;;;5005324;28;20016;-73
2022/05/10 08:49:19;;;;;;;;;;;18.00;99.90;;;;;;4990250;28;19949;-72
2022/05/10 08:51:46;;;;;;;;;;;18.10;99.90;;;;;;4999648;28;19944;-73
2022/05/10 08:54:18;;;;;;;;;;;18.20;99.90;;;;;;5004646;28;19930;-72
2022/05/10 08:56:54;;;;;;;;;;;18.30;99.90;;;;;;5004649;28;19925;-73
2022/05/10 08:59:29;;;;;;;;;;;18.40;99.90;;;;;;5006288;28;19925;-73
2022/05/10 09:02:00;;;;;;;;;;;18.50;99.90;;;;;;4998497;28;19932;-73
2022/05/10 09:04:41;;;;;;;;;;;18.70;99.90;;;;;;5002058;28;19948;-73
2022/05/10 09:07:12;;;;;;;;;;;18.80;99.90;;;;;;5002985;28;19932;-72
2022/05/10 09:09:56;;;;;;;;;;;18.90;99.90;;;;;;5002290;28;19929;-72
2022/05/10 09:12:28;;;;;;;;;;;19.00;99.90;;;;;;4964999;28;19926;-73
2022/05/10 09:15:01;;;;;;;;;;;19.10;99.90;;;;;;4991510;28;19947;-72
2022/05/10 09:17:36;;;;;;;;;;;19.20;99.90;;;;;;4984334;28;19930;-72
2022/05/10 09:20:09;;;;;;;;;;;19.30;99.90;;;;;;5002350;28;19941;-73
2022/05/10 09:22:43;;;;;;;;;;;19.40;99.90;;;;;;5001852;28;19925;-72
2022/05/10 09:25:27;;;;;;;;;;;19.50;99.90;;;;;;5003833;28;19929;-73
2022/05/10 09:28:03;;;;;;;;;;;19.60;99.90;;;;;;5001943;28;19929;-72
2022/05/10 09:30:35;;;;;;;;;;;19.60;99.90;;;;;;4994758;28;20024;-73
2022/05/10 09:36:10;;;;;;;;;;;19.70;99.90;;;;;;5001808;28;20294;-72
2022/05/10 09:38:43;;;;;;;;;;;19.80;99.90;;;;;;5008628;28;19926;-73
2022/05/10 09:41:35;;;;;;;;;;;19.80;99.90;;;;;;4994693;28;19929;-73
2022/05/10 09:44:14;;;;;;;;;;;20.00;99.90;;;;;;5007768;28;19956;-73
2022/05/10 09:46:46;;;;;;;;;;;20.20;99.90;;;;;;5006787;28;19948;-72
2022/05/10 09:49:31;;;;;;;;;;;20.30;99.90;;;;;;4996277;28;19932;-72
2022/05/10 09:51:59;;;;;;;;;;;20.10;99.90;;;;;;4992200;28;19934;-72
2022/05/10 09:54:38;;;;;;;;;;;20.00;99.90;;;;;;4990448;28;19929;-73
2022/05/10 09:57:13;;;;;;;;;;;19.80;99.90;;;;;;5008394;28;19933;-73
2022/05/10 09:59:39;;;;;;;;;;;19.80;99.90;;;;;;5001120;28;19925;-73
2022/05/10 10:02:23;;;;;;;;;;;19.80;99.90;;;;;;5007494;28;19925;-73
2022/05/10 10:04:55;;;;;;;;;;;20.00;99.90;;;;;;5008271;28;19929;-72
2022/05/10 10:07:28;;;;;;;;;;;20.20;99.90;;;;;;5009826;28;20019;-72
2022/05/10 10:10:16;;;;;;;;;;;20.40;99.90;;;;;;5010611;28;19933;-73
2022/05/10 10:12:48;;;;;;;;;;;20.60;99.90;;;;;;5005924;28;19930;-73
2022/05/10 10:15:33;;;;;;;;;;;20.80;99.90;;;;;;5006335;28;20309;-73
2022/05/10 10:18:09;;;;;;;;;;;20.90;99.90;;;;;;5006990;28;20301;-73
2022/05/10 10:20:45;;;;;;;;;;;21.10;99.90;;;;;;5008870;28;20501;-73
2022/05/10 10:23:26;;;;;;;;;;;21.20;99.90;;;;;;4999947;28;20003;-73
2022/05/10 10:26:21;;;;;;;;;;;21.30;99.90;;;;;;5005151;28;19936;-73
2022/05/10 10:28:53;;;;;;;;;;;21.30;99.90;;;;;;4971784;28;19929;-72
2022/05/10 10:31:35;;;;;;;;;;;21.20;99.90;;;;;;4991236;28;19926;-73
2022/05/10 10:34:27;;;;;;;;;;;21.00;99.90;;;;;;4989761;28;19980;-73
2022/05/10 10:37:07;;;;;;;;;;;20.80;99.90;;;;;;4982750;28;19930;-73
2022/05/10 10:39:36;;;;;;;;;;;20.70;99.90;;;;;;4999583;28;19933;-72
2022/05/10 10:42:17;;;;;;;;;;;20.70;99.90;;;;;;4988765;28;20020;-72
2022/05/10 10:44:55;;;;;;;;;;;20.70;99.90;;;;;;5003720;28;20283;-73
2022/05/10 10:47:36;;;;;;;;;;;20.90;99.90;;;;;;5005277;28;19934;-73
2022/05/10 10:50:32;;;;;;;;;;;21.00;99.90;;;;;;5006632;28;19925;-72
2022/05/10 10:53:07;;;;;;;;;;;21.10;99.90;;;;;;4985878;28;19936;-72
2022/05/10 10:55:42;;;;;;;;;;;21.20;99.90;;;;;;4986201;28;19936;-73
2022/05/10 10:58:23;;;;;;;;;;;21.50;99.90;;;;;;5004028;28;20403;-72
2022/05/10 11:01:05;;;;;;;;;;;21.50;99.90;;;;;;4986222;28;19930;-72
2022/05/10 11:03:52;;;;;;;;;;;21.40;99.90;;;;;;4974286;28;19930;-72
2022/05/10 11:06:26;;;;;;;;;;;21.50;99.90;;;;;;4988676;28;19936;-73
2022/05/10 11:09:01;;;;;;;;;;;21.70;99.90;;;;;;4989093;28;19926;-73
2022/05/10 11:11:35;;;;;;;;;;;21.80;99.90;;;;;;4984592;28;19965;-73
2022/05/10 11:14:10;;;;;;;;;;;22.00;99.90;;;;;;4988163;28;19929;-72
2022/05/10 11:17:14;;;;;;;;;;;22.10;99.90;;;;;;4977846;28;20367;-73
2022/05/10 11:19:48;;;;;;;;;;;22.30;99.90;;;;;;4960890;28;19937;-73
2022/05/10 11:22:39;;;;;;;;;;;22.60;99.90;;;;;;4987765;28;20302;-73
2022/05/10 11:25:15;;;;;;;;;;;22.60;99.90;;;;;;4971119;28;19930;-73
2022/05/10 11:28:05;;;;;;;;;;;22.60;99.90;;;;;;4989493;28;19929;-73
2022/05/10 11:30:53;;;;;;;;;;;22.60;99.90;;;;;;4997334;28;19926;-72
2022/05/10 11:33:24;;;;;;;;;;;22.40;99.90;;;;;;4996875;28;20421;-74
2022/05/10 11:35:57;;;;;;;;;;;22.40;99.90;;;;;;5000987;28;20012;-72
2022/05/10 11:38:47;;;;;;;;;;;22.50;98.90;;;;;;4999455;28;19936;-72
2022/05/10 11:41:38;;;;;;;;;;;22.60;97.30;;;;;;4998862;28;19933;-73
2022/05/10 11:44:24;;;;;;;;;;;22.70;95.70;;;;;;4967236;28;19929;-73
2022/05/10 11:46:51;;;;;;;;;;;22.70;95.70;;;;;;4984360;28;19933;-73
2022/05/10 11:49:28;;;;;;;;;;;22.90;94.20;;;;;;4986532;28;20307;-73
2022/05/10 11:52:04;;;;;;;;;;;22.80;94.50;;;;;;4987170;28;19930;-72
2022/05/10 11:54:41;;;;;;;;;;;22.60;93.70;;;;;;4981771;28;19926;-73
2022/05/10 11:57:09;;;;;;;;;;;22.40;93.90;;;;;;4982686;28;20414;-73
2022/05/10 11:59:42;;;;;;;;;;;22.20;95.40;;;;;;4978427;28;19930;-73
2022/05/10 12:02:27;;;;;;;;;;;22.10;94.90;;;;;;4996115;28;19934;-73
2022/05/10 12:05:14;;;;;;;;;;;22.20;94.90;;;;;;4982697;28;20313;-73
2022/05/10 12:07:52;;;;;;;;;;;22.40;94.30;;;;;;4989906;28;20033;-72
2022/05/10 12:10:22;;;;;;;;;;;22.70;91.80;;;;;;4995702;28;20024;-73
2022/05/10 12:13:00;;;;;;;;;;;22.90;91.00;;;;;;4984506;28;19925;-73
2022/05/10 12:21:22;;;;;;;;;;;23.00;90.00;;;;;;4993496;28;19941;-72
2022/05/10 12:24:13;;;;;;;;;;;23.10;89.10;;;;;;4997139;28;19931;-73
2022/05/10 12:26:46;;;;;;;;;;;23.10;90.30;;;;;;4980963;28;20407;-73
2022/05/10 12:29:27;;;;;;;;;;;23.20;90.20;;;;;;4986317;28;19933;-73
2022/05/10 12:32:04;;;;;;;;;;;23.30;89.10;;;;;;4983730;28;19926;-73
2022/05/10 12:34:54;;;;;;;;;;;23.50;89.90;;;;;;4983120;28;19925;-72
2022/05/10 12:37:35;;;;;;;;;;;23.90;89.30;;;;;;5000051;28;19936;-72
2022/05/10 12:40:10;;;;;;;;;;;23.90;80.50;;;;;;4983947;28;19933;-72
2022/05/10 12:42:55;;;;;;;;;;;23.80;81.20;;;;;;5005631;28;20023;-72
2022/05/10 12:45:34;;;;;;;;;;;23.60;81.90;;;;;;4989816;28;20343;-72
2022/05/10 12:48:10;;;;;;;;;;;23.40;86.40;;;;;;5002926;28;19929;-73
2022/05/10 12:50:47;;;;;;;;;;;23.40;88.70;;;;;;4975099;28;19925;-72
2022/05/10 12:53:24;;;;;;;;;;;23.60;90.00;;;;;;5003423;28;19943;-72
2022/05/10 12:55:54;;;;;;;;;;;23.90;87.30;;;;;;5004384;28;19926;-72
2022/05/10 12:58:34;;;;;;;;;;;24.10;82.20;;;;;;4993701;28;19925;-72
2022/05/10 13:01:06;;;;;;;;;;;24.20;83.40;;;;;;5001206;28;19937;-72
2022/05/10 13:03:45;;;;;;;;;;;24.30;76.00;;;;;;4975876;28;19926;-72
2022/05/10 13:06:22;;;;;;;;;;;24.30;71.70;;;;;;4991291;28;19936;-72
2022/05/10 13:08:58;;;;;;;;;;;24.40;69.30;;;;;;4997022;28;19929;-72
2022/05/10 13:11:36;;;;;;;;;;;24.30;69.90;;;;;;4989731;28;19933;-72
2022/05/10 13:14:08;;;;;;;;;;;24.40;70.30;;;;;;5001137;28;20016;-72
2022/05/10 13:16:48;;;;;;;;;;;24.30;73.30;;;;;;5007863;28;19940;-72
2022/05/10 13:19:21;;;;;;;;;;;24.20;75.90;;;;;;4989378;28;19934;-72
2022/05/10 13:21:53;;;;;;;;;;;24.40;73.40;;;;;;5006875;28;20298;-72
2022/05/10 13:24:26;;;;;;;;;;;24.40;73.10;;;;;;4990051;28;19951;-72
2022/05/10 13:26:59;;;;;;;;;;;24.40;70.20;;;;;;5006398;28;20547;-72
2022/05/10 13:29:42;;;;;;;;;;;24.50;72.40;;;;;;5002687;28;19930;-72
2022/05/10 13:32:33;;;;;;;;;;;24.60;72.60;;;;;;5006583;28;19930;-72
2022/05/10 13:35:10;;;;;;;;;;;24.70;70.70;;;;;;5009190;28;20505;-73
2022/05/10 13:37:50;;;;;;;;;;;24.70;65.90;;;;;;5004790;28;19964;-73
2022/05/10 13:40:26;;;;;;;;;;;24.70;69.50;;;;;;5006637;28;19929;-73
2022/05/10 13:43:05;;;;;;;;;;;24.70;71.40;;;;;;4993284;28;19925;-73
2022/05/10 13:45:36;;;;;;;;;;;24.80;74.40;;;;;;4990682;28;19933;-73
2022/05/10 13:48:08;;;;;;;;;;;24.90;68.00;;;;;;5005791;28;20394;-73
2022/05/10 13:50:35;;;;;;;;;;;24.90;67.60;;;;;;5010462;28;19926;-72
2022/05/10 13:53:08;;;;;;;;;;;25.00;66.40;;;;;;4991584;28;19933;-73
2022/05/10 13:55:50;;;;;;;;;;;25.20;68.10;;;;;;5007445;28;19942;-72
2022/05/10 13:58:33;;;;;;;;;;;25.40;68.30;;;;;;5005669;28;19925;-73
2022/05/10 14:01:05;;;;;;;;;;;25.60;66.70;;;;;;5009111;28;20394;-72
2022/05/10 14:03:38;;;;;;;;;;;25.70;64.10;;;;;;5009709;28;19925;-73
2022/05/10 14:06:14;;;;;;;;;;;25.80;63.90;;;;;;5005838;28;19936;-72
2022/05/10 14:08:46;;;;;;;;;;;25.70;64.50;;;;;;5008402;28;20012;-73
2022/05/10 14:11:19;;;;;;;;;;;25.50;63.30;;;;;;4988111;28;20032;-72
2022/05/10 14:13:57;;;;;;;;;;;25.40;63.60;;;;;;4991893;28;20370;-72
2022/05/10 14:16:33;;;;;;;;;;;25.40;63.80;;;;;;5010659;28;19932;-73
2022/05/10 14:19:10;;;;;;;;;;;25.40;63.80;;;;;;4992683;28;19926;-72
2022/05/10 14:21:43;;;;;;;;;;;25.60;64.20;;;;;;5012183;28;20344;-72
2022/05/10 14:24:11;;;;;;;;;;;25.70;63.40;;;;;;5005828;28;20012;-73
2022/05/10 14:26:44;;;;;;;;;;;25.80;66.00;;;;;;4992765;28;19932;-72
2022/05/10 14:29:20;;;;;;;;;;;25.70;62.80;;;;;;5013358;28;19929;-72
2022/05/10 14:32:00;;;;;;;;;;;25.70;64.80;;;;;;4983408;28;19926;-72
2022/05/10 14:34:58;;;;;;;;;;;25.70;66.40;;;;;;4988434;28;19932;-73
2022/05/10 14:37:29;;;;;;;;;;;25.70;63.80;;;;;;4998194;28;19940;-72
2022/05/10 14:40:19;;;;;;;;;;;25.70;59.60;;;;;;5010808;28;19929;-73
2022/05/10 14:42:53;;;;;;;;;;;25.60;59.10;;;;;;4991168;28;19926;-72
2022/05/10 14:45:25;;;;;;;;;;;25.40;58.40;;;;;;4997019;28;19932;-72
2022/05/10 14:48:00;;;;;;;;;;;25.30;60.70;;;;;;5007813;28;19925;-72
2022/05/10 14:50:42;;;;;;;;;;;25.20;59.40;;;;;;4997375;28;19926;-73
2022/05/10 14:53:21;;;;;;;;;;;25.00;59.50;;;;;;5005306;28;19934;-72
2022/05/10 14:55:58;;;;;;;;;;;24.80;61.30;;;;;;5007332;28;19926;-72
2022/05/10 14:58:30;;;;;;;;;;;24.80;61.20;;;;;;4994388;28;19929;-72
2022/05/10 15:01:06;;;;;;;;;;;24.90;62.80;;;;;;4990681;28;20382;-72
2022/05/10 15:03:38;;;;;;;;;;;25.00;62.90;;;;;;4984470;28;19925;-72
2022/05/10 15:06:11;;;;;;;;;;;25.00;61.60;;;;;;5007220;28;19925;-72
2022/05/10 15:08:43;;;;;;;;;;;25.00;61.40;;;;;;4981782;28;19926;-72
2022/05/10 15:11:14;;;;;;;;;;;25.10;61.20;;;;;;4985272;28;19933;-72
2022/05/10 15:13:46;;;;;;;;;;;25.20;63.10;;;;;;5008220;28;19930;-72
2022/05/10 15:16:18;;;;;;;;;;;25.40;62.00;;;;;;5007099;28;19925;-72